Time;durP1;ratioP1;P1;durP2;ratioP2;P2;SDS_P1;SDS_P2;PMS_P1;PMS_P2;Temp;Humidity;BMP_temperature;BMP_pressure;BME280_temperature;BME280_humidity;BME280_pressure;Samples;Min_cycle;Max_cycle;Signal;HPM_P1;HPM_P2
2022/01/18 00:01:28;;;;;;;21.65;5.40;;;7.50;99.90;;;;;;5061015;28;20032;-62
2022/01/18 00:03:54;;;;;;;14.38;3.70;;;7.50;99.90;;;;;;5056859;28;20021;-62
2022/01/18 00:06:20;;;;;;;16.60;4.57;;;7.50;99.90;;;;;;5052897;28;20083;-62
2022/01/18 00:08:46;;;;;;;16.15;4.38;;;7.50;99.90;;;;;;5063451;28;20060;-62
2022/01/18 00:11:11;;;;;;;15.05;4.55;;;7.50;99.90;;;;;;5057463;28;20076;-62
2022/01/18 00:13:46;;;;;;;23.02;5.85;;;7.50;99.90;;;;;;5043299;28;20028;-62
2022/01/18 00:16:26;;;;;;;23.80;5.00;;;7.50;99.90;;;;;;5052501;28;20654;-62
2022/01/18 00:18:54;;;;;;;22.17;5.38;;;7.50;99.90;;;;;;5054695;28;20105;-62
2022/01/18 00:21:29;;;;;;;19.77;5.50;;;7.40;99.90;;;;;;5057261;28;20532;-62
2022/01/18 00:23:57;;;;;;;20.30;4.20;;;7.40;99.90;;;;;;5056567;28;20370;-62
2022/01/18 00:26:27;;;;;;;20.40;3.92;;;7.40;99.90;;;;;;5048675;28;20401;-62
2022/01/18 00:28:58;;;;;;;17.35;3.72;;;7.40;99.90;;;;;;5056206;28;20381;-62
2022/01/18 00:39:14;;;;;;;21.70;5.47;;;7.40;99.90;;;;;;5054810;28;20020;-62
2022/01/18 00:41:40;;;;;;;20.65;4.95;;;7.40;99.90;;;;;;5059695;28;20028;-62
2022/01/18 00:44:07;;;;;;;21.08;4.43;;;7.40;99.90;;;;;;5031349;28;20017;-62
2022/01/18 00:46:33;;;;;;;18.45;4.80;;;7.40;99.90;;;;;;5053617;28;20100;-62
2022/01/18 00:49:01;;;;;;;14.27;5.05;;;7.40;99.90;;;;;;5050314;28;20104;-62
2022/01/18 00:51:28;;;;;;;18.85;4.22;;;7.40;99.90;;;;;;5058097;28;20024;-62
2022/01/18 00:53:57;;;;;;;21.20;4.20;;;7.40;99.90;;;;;;5057673;28;20027;-62
2022/01/18 00:56:26;;;;;;;22.02;5.25;;;7.40;99.90;;;;;;5056907;28;20012;-62
2022/01/18 00:58:52;;;;;;;18.38;4.63;;;7.40;99.90;;;;;;5057198;28;20275;-62
2022/01/18 01:01:20;;;;;;;18.55;5.50;;;7.40;99.90;;;;;;5054476;28;20025;-62
2022/01/18 01:03:46;;;;;;;19.23;4.13;;;7.40;99.90;;;;;;5033815;28;20017;-62
2022/01/18 01:06:12;;;;;;;18.70;3.72;;;7.40;99.90;;;;;;5051412;28;20060;-62
2022/01/18 01:08:37;;;;;;;19.50;5.28;;;7.40;99.90;;;;;;5059962;28;20052;-62
2022/01/18 01:11:05;;;;;;;14.90;3.85;;;7.40;99.90;;;;;;5051339;28;20032;-62
2022/01/18 01:13:32;;;;;;;14.88;3.75;;;7.30;99.90;;;;;;5051868;28;20036;-62
2022/01/18 01:45:06;;;;;;;19.77;4.65;;;7.40;99.90;;;;;;5052107;28;20025;-62
2022/01/18 01:47:36;;;;;;;24.42;5.80;;;7.40;99.90;;;;;;5052058;28;20025;-62
2022/01/18 01:50:16;;;;;;;20.52;5.18;;;7.40;99.90;;;;;;5052080;28;20054;-62
2022/01/18 01:52:43;;;;;;;16.75;4.53;;;7.40;99.90;;;;;;5051587;28;20498;-62
2022/01/18 01:55:09;;;;;;;17.77;4.72;;;7.30;99.90;;;;;;5028410;28;20021;-62
2022/01/18 01:57:35;;;;;;;16.55;4.38;;;7.30;99.90;;;;;;5051758;28;20075;-62
2022/01/18 02:00:06;;;;;;;10.82;3.90;;;7.30;99.90;;;;;;5048616;28;20534;-62
2022/01/18 02:02:31;;;;;;;11.43;4.28;;;7.30;99.90;;;;;;5050767;28;20029;-62
2022/01/18 02:04:57;;;;;;;16.05;3.83;;;7.20;99.90;;;;;;5044237;28;20077;-62
2022/01/18 02:07:22;;;;;;;15.93;3.22;;;7.20;99.90;;;;;;5051642;28;20119;-62
2022/01/18 02:09:48;;;;;;;10.85;4.30;;;7.20;99.90;;;;;;5050394;28;20031;-63
2022/01/18 02:12:17;;;;;;;20.05;5.85;;;7.20;99.90;;;;;;5051786;28;20071;-63
2022/01/18 02:14:47;;;;;;;16.07;3.87;;;7.20;99.90;;;;;;5051262;28;20057;-62
2022/01/18 02:22:44;;;;;;;12.07;3.65;;;7.20;99.90;;;;;;5051713;28;20040;-62
2022/01/18 02:25:10;;;;;;;14.77;3.47;;;7.20;99.90;;;;;;5051374;28;20041;-62
2022/01/18 02:27:35;;;;;;;10.93;3.85;;;7.20;99.90;;;;;;5055897;28;20026;-62
2022/01/18 02:30:01;;;;;;;13.43;4.03;;;7.20;99.90;;;;;;5049751;28;20037;-62
2022/01/18 02:32:27;;;;;;;14.90;3.45;;;7.20;99.90;;;;;;5053957;28;20025;-62
2022/01/18 02:34:52;;;;;;;17.00;4.40;;;7.20;99.90;;;;;;5052968;28;20037;-62
2022/01/18 02:37:18;;;;;;;14.57;4.35;;;7.20;99.90;;;;;;5057966;28;20021;-62
2022/01/18 02:39:43;;;;;;;16.30;4.00;;;7.20;99.90;;;;;;5053840;28;20048;-62
2022/01/18 02:42:11;;;;;;;15.48;4.20;;;7.20;99.90;;;;;;5062202;28;20025;-62
2022/01/18 02:44:36;;;;;;;18.85;5.43;;;7.20;99.90;;;;;;5058972;28;20020;-62
2022/01/18 02:47:04;;;;;;;15.45;5.20;;;7.30;99.90;;;;;;5056537;28;20145;-62
2022/01/18 02:49:29;;;;;;;19.13;5.45;;;7.20;99.90;;;;;;5056417;28;20021;-62
2022/01/18 02:51:57;;;;;;;27.35;7.68;;;7.30;99.90;;;;;;5054177;28;20079;-62
2022/01/18 02:54:22;;;;;;;19.98;5.93;;;7.30;99.90;;;;;;5056587;28;20576;-62
2022/01/18 02:56:55;;;;;;;22.15;6.50;;;7.30;99.90;;;;;;5056259;28;20035;-62
2022/01/18 02:59:32;;;;;;;19.77;5.60;;;7.20;99.90;;;;;;5059561;28;20024;-62
2022/01/18 03:04:47;;;;;;;16.23;5.57;;;7.20;99.90;;;;;;5056633;28;20031;-62
2022/01/18 03:07:13;;;;;;;17.73;5.65;;;7.20;99.90;;;;;;5061044;28;20031;-62
2022/01/18 03:09:39;;;;;;;20.73;5.78;;;7.10;99.90;;;;;;5055322;28;20082;-62
2022/01/18 03:12:06;;;;;;;23.55;6.03;;;7.10;99.90;;;;;;5056220;28;20021;-62
2022/01/18 03:14:33;;;;;;;24.35;6.13;;;7.10;99.90;;;;;;5054245;28;20029;-62
2022/01/18 03:16:58;;;;;;;32.22;7.18;;;7.10;99.90;;;;;;5065532;28;20491;-62
2022/01/18 03:19:24;;;;;;;33.38;6.85;;;7.10;99.90;;;;;;5058651;28;20021;-62
2022/01/18 03:21:51;;;;;;;27.45;7.72;;;7.10;99.90;;;;;;5053200;28;20029;-62
2022/01/18 03:29:36;;;;;;;25.30;7.95;;;7.10;99.90;;;;;;5052327;28;20036;-62
2022/01/18 03:32:05;;;;;;;27.08;8.35;;;7.10;99.90;;;;;;5056430;28;20041;-62
2022/01/18 03:34:31;;;;;;;32.35;8.48;;;7.10;99.90;;;;;;5058471;28;20024;-62
2022/01/18 03:36:56;;;;;;;28.27;7.78;;;7.10;99.90;;;;;;5055376;28;20039;-62
2022/01/18 03:39:34;;;;;;;29.88;8.18;;;7.10;99.90;;;;;;5050352;28;20488;-62
2022/01/18 03:42:36;;;;;;;26.73;8.15;;;7.10;99.90;;;;;;5060752;28;20472;-62
2022/01/18 03:45:10;;;;;;;30.42;8.57;;;7.10;99.90;;;;;;5053157;28;20567;-62
2022/01/18 03:47:35;;;;;;;27.23;8.07;;;7.10;99.90;;;;;;5064587;28;20033;-62
2022/01/18 03:50:03;;;;;;;23.30;8.80;;;7.10;99.90;;;;;;5067562;28;20665;-62
2022/01/18 03:52:29;;;;;;;26.60;8.95;;;7.10;99.90;;;;;;5055484;28;20037;-62
2022/01/18 03:54:55;;;;;;;21.77;9.02;;;7.10;99.90;;;;;;5053876;28;20057;-62
2022/01/18 03:57:21;;;;;;;20.58;8.75;;;7.10;99.90;;;;;;5056203;28;20021;-62
2022/01/18 03:59:47;;;;;;;17.02;7.88;;;7.10;99.90;;;;;;5020380;28;20028;-62
2022/01/18 04:02:13;;;;;;;25.30;9.23;;;7.00;99.90;;;;;;5048118;28;20079;-62
2022/01/18 04:04:40;;;;;;;19.13;8.65;;;7.00;99.90;;;;;;5051607;28;20537;-62
2022/01/18 04:07:14;;;;;;;21.10;9.15;;;7.00;99.90;;;;;;5052443;28;20036;-62
2022/01/18 04:09:40;;;;;;;25.25;9.05;;;7.00;99.90;;;;;;5054404;28;20557;-62
2022/01/18 04:12:06;;;;;;;20.27;8.65;;;7.00;99.90;;;;;;5060666;28;20044;-61
2022/01/18 04:14:32;;;;;;;21.05;8.18;;;7.00;99.90;;;;;;5054873;28;20025;-62
2022/01/18 04:17:32;;;;;;;19.38;9.27;;;7.00;99.90;;;;;;5049665;28;20021;-62
2022/01/18 04:30:54;;;;;;;18.88;6.93;;;6.90;99.90;;;;;;5049328;28;20207;-62
2022/01/18 04:33:20;;;;;;;15.38;5.88;;;6.90;99.90;;;;;;5049088;28;20480;-62
2022/01/18 04:35:46;;;;;;;14.30;5.82;;;6.90;99.90;;;;;;5054232;28;20020;-62
2022/01/18 04:38:12;;;;;;;14.27;5.68;;;6.90;99.90;;;;;;5058501;28;20024;-62
2022/01/18 04:40:41;;;;;;;11.93;4.93;;;7.00;99.90;;;;;;5032663;28;20024;-62
2022/01/18 04:43:15;;;;;;;14.13;5.03;;;7.00;99.90;;;;;;5051750;28;20025;-61
2022/01/18 04:48:28;;;;;;;13.23;5.22;;;7.00;99.90;;;;;;5054380;28;20503;-62
2022/01/18 04:51:09;;;;;;;14.02;5.25;;;6.90;99.90;;;;;;5052921;28;20064;-62
2022/01/18 04:53:41;;;;;;;13.98;5.05;;;6.90;99.90;;;;;;5050200;28;20025;-62
2022/01/18 04:56:14;;;;;;;18.77;5.88;;;6.90;99.90;;;;;;5051238;28;20017;-62
2022/01/18 04:58:40;;;;;;;13.20;4.25;;;6.90;99.90;;;;;;5053533;28;20025;-62
2022/01/18 05:01:07;;;;;;;11.32;3.75;;;6.90;99.90;;;;;;5051907;28;20025;-62
2022/01/18 05:03:33;;;;;;;12.20;3.90;;;6.90;99.90;;;;;;5056202;28;20028;-62
2022/01/18 05:06:03;;;;;;;9.95;3.53;;;6.90;99.90;;;;;;5054231;28;20102;-62
2022/01/18 05:08:29;;;;;;;13.73;4.70;;;6.90;99.90;;;;;;5058040;28;20044;-62
2022/01/18 05:10:57;;;;;;;13.05;4.28;;;6.90;99.90;;;;;;5056044;28;20473;-62
2022/01/18 05:21:27;;;;;;;17.63;7.18;;;7.00;99.90;;;;;;5060005;28;20032;-62
2022/01/18 05:23:54;;;;;;;12.73;4.60;;;7.00;99.90;;;;;;5055217;28;20021;-62
2022/01/18 05:26:20;;;;;;;14.55;5.97;;;7.00;99.90;;;;;;5054774;28;20458;-62
2022/01/18 05:28:46;;;;;;;15.95;6.55;;;7.00;99.90;;;;;;5054150;28;20036;-62
2022/01/18 05:31:12;;;;;;;14.27;6.78;;;7.00;99.90;;;;;;5053915;28;20020;-62
2022/01/18 05:33:40;;;;;;;13.02;6.88;;;7.00;99.90;;;;;;5053655;28;20031;-62
2022/01/18 05:36:06;;;;;;;17.42;7.55;;;7.00;99.90;;;;;;5053726;28;20465;-62
2022/01/18 05:38:33;;;;;;;15.32;6.57;;;7.00;99.90;;;;;;5049675;28;20029;-62
2022/01/18 05:40:59;;;;;;;16.95;7.00;;;6.90;99.90;;;;;;5052476;28;20017;-62
2022/01/18 05:43:25;;;;;;;14.98;6.70;;;6.90;99.90;;;;;;5030449;28;20111;-62
2022/01/18 05:45:50;;;;;;;18.13;7.57;;;6.90;99.90;;;;;;5048499;28;20108;-62
2022/01/18 05:48:16;;;;;;;17.23;7.28;;;6.90;99.90;;;;;;5057193;28;20036;-62
2022/01/18 05:50:41;;;;;;;16.45;7.40;;;6.90;99.90;;;;;;5051966;28;20574;-62
2022/01/18 05:53:07;;;;;;;20.75;8.38;;;6.80;99.90;;;;;;5033222;28;20116;-62
2022/01/18 05:55:33;;;;;;;16.75;8.70;;;6.80;99.90;;;;;;5058519;28;20029;-62
2022/01/18 05:58:24;;;;;;;15.57;7.55;;;6.80;99.90;;;;;;5048199;28;20078;-62
2022/01/18 06:00:54;;;;;;;17.58;6.97;;;6.80;99.90;;;;;;5054394;28;20505;-62
2022/01/18 06:03:51;;;;;;;14.35;7.55;;;6.70;99.90;;;;;;5049745;28;20029;-62
2022/01/18 06:06:54;;;;;;;15.02;7.38;;;6.70;99.90;;;;;;5052411;28;20037;-62
2022/01/18 06:09:23;;;;;;;16.63;6.88;;;6.70;99.90;;;;;;5048307;28;20036;-62
2022/01/18 06:11:49;;;;;;;16.43;7.03;;;6.70;99.90;;;;;;5056437;28;20028;-62
2022/01/18 06:14:15;;;;;;;12.25;6.03;;;6.70;99.90;;;;;;5051880;28;20132;-62
2022/01/18 06:16:41;;;;;;;16.08;6.97;;;6.70;99.90;;;;;;5034689;28;20044;-62
2022/01/18 06:19:14;;;;;;;14.80;6.20;;;6.70;99.90;;;;;;5056872;28;20060;-62
2022/01/18 06:21:39;;;;;;;13.80;5.80;;;6.70;99.90;;;;;;5051629;28;20555;-62
2022/01/18 06:24:07;;;;;;;14.75;5.57;;;6.70;99.90;;;;;;5057304;28;20029;-62
2022/01/18 06:26:33;;;;;;;13.05;6.22;;;6.70;99.90;;;;;;5034339;28;20515;-62
2022/01/18 06:29:00;;;;;;;12.40;6.28;;;6.70;99.90;;;;;;5055656;28;20475;-62
2022/01/18 06:31:25;;;;;;;15.20;6.22;;;6.70;99.90;;;;;;5062229;28;20500;-62
2022/01/18 06:33:51;;;;;;;14.63;6.15;;;6.70;99.90;;;;;;5060341;28;20032;-62
2022/01/18 06:36:16;;;;;;;16.48;6.75;;;6.70;99.90;;;;;;5061356;28;20475;-62
2022/01/18 06:38:42;;;;;;;13.13;5.43;;;6.70;99.90;;;;;;5035859;28;20536;-62
2022/01/18 06:41:07;;;;;;;13.60;6.53;;;6.70;99.90;;;;;;5054175;28;20100;-61
2022/01/18 06:43:33;;;;;;;13.90;6.47;;;6.60;99.90;;;;;;5051787;28;20095;-62
2022/01/18 06:46:00;;;;;;;12.52;5.95;;;6.70;99.90;;;;;;5054341;28;20067;-61
2022/01/18 06:48:25;;;;;;;13.85;5.50;;;6.70;99.90;;;;;;5054932;28;20079;-61
2022/01/18 06:51:01;;;;;;;12.32;5.40;;;6.60;99.90;;;;;;5054906;28;20033;-61
2022/01/18 06:53:31;;;;;;;11.43;5.47;;;6.60;99.90;;;;;;5055058;28;20083;-62
2022/01/18 06:55:57;;;;;;;11.10;5.22;;;6.60;99.90;;;;;;5054422;28;20031;-62
2022/01/18 06:58:35;;;;;;;10.85;4.93;;;6.60;99.90;;;;;;5054735;28;20033;-62
2022/01/18 07:01:00;;;;;;;12.13;5.88;;;6.60;99.90;;;;;;5054494;28;20024;-61
2022/01/18 07:03:35;;;;;;;9.80;5.10;;;6.60;99.90;;;;;;5054283;28;20029;-62
2022/01/18 07:06:27;;;;;;;12.05;5.00;;;6.60;99.90;;;;;;5054397;28;20028;-62
2022/01/18 07:08:52;;;;;;;10.02;4.70;;;6.60;99.90;;;;;;5064379;28;20472;-61
2022/01/18 07:11:20;;;;;;;13.85;4.30;;;6.50;99.90;;;;;;5056816;28;20055;-62
2022/01/18 07:14:08;;;;;;;;;;;;;;;;;;;;;
2022/01/18 07:16:34;;;;;;;8.40;3.92;;;6.50;99.90;;;;;;5079358;28;20031;-62
2022/01/18 07:18:59;;;;;;;8.60;3.88;;;6.50;99.90;;;;;;5094933;28;20103;-62
2022/01/18 07:21:38;;;;;;;7.78;4.10;;;6.50;99.90;;;;;;5094505;28;20494;-62
2022/01/18 07:24:35;;;;;;;;;;;;;;;;;;;;;
2022/01/18 07:27:50;;;;;;;13.70;5.28;;;6.50;99.90;;;;;;5071412;28;20041;-62
2022/01/18 07:30:15;;;;;;;10.60;4.32;;;6.50;99.90;;;;;;5046459;28;20043;-62
2022/01/18 07:33:22;;;;;;;9.00;4.93;;;6.40;99.90;;;;;;5074294;28;20111;-62
2022/01/18 07:35:48;;;;;;;10.90;3.97;;;6.40;99.90;;;;;;5072940;28;20036;-62
2022/01/18 07:38:17;;;;;;;7.75;3.53;;;6.30;99.90;;;;;;5063250;28;20108;-62
2022/01/18 07:40:48;;;;;;;7.97;4.03;;;6.30;99.90;;;;;;5053863;28;20067;-62
2022/01/18 07:43:16;;;;;;;11.88;4.40;;;6.30;99.90;;;;;;5053043;28;20100;-61
2022/01/18 07:45:46;;;;;;;10.50;4.72;;;6.20;99.90;;;;;;5053293;28;20099;-62
2022/01/18 07:48:12;;;;;;;19.90;4.97;;;6.10;99.90;;;;;;5052968;28;20111;-61
2022/01/18 07:50:39;;;;;;;14.38;5.47;;;6.00;99.90;;;;;;5052516;28;20096;-62
2022/01/18 07:53:04;;;;;;;11.32;4.13;;;6.00;99.90;;;;;;5050235;28;20469;-62
2022/01/18 07:55:30;;;;;;;12.23;3.80;;;6.10;99.90;;;;;;5049954;28;20031;-62
2022/01/18 07:57:58;;;;;;;11.98;3.75;;;6.10;99.90;;;;;;5046396;28;20496;-62
2022/01/18 08:00:34;;;;;;;6.85;3.47;;;6.10;99.90;;;;;;5032982;28;20032;-62
2022/01/18 08:02:59;;;;;;;8.18;3.15;;;6.10;99.90;;;;;;5031742;28;20091;-62
2022/01/18 08:05:25;;;;;;;10.23;4.10;;;6.10;99.90;;;;;;5052627;28;20465;-62
2022/01/18 08:07:50;;;;;;;19.23;4.20;;;6.10;99.90;;;;;;5049665;28;20056;-62
2022/01/18 08:10:33;;;;;;;12.75;3.67;;;6.00;99.90;;;;;;5052297;28;20090;-62
2022/01/18 08:13:01;;;;;;;15.32;3.60;;;6.00;99.90;;;;;;5053326;28;20025;-62
2022/01/18 08:15:37;;;;;;;10.77;3.22;;;6.00;99.90;;;;;;5052257;28;20029;-62
2022/01/18 08:18:03;;;;;;;15.65;4.28;;;6.00;99.90;;;;;;5053012;28;20033;-61
2022/01/18 08:20:38;;;;;;;11.65;4.82;;;6.00;99.90;;;;;;5053275;28;20021;-62
2022/01/18 08:26:58;;;;;;;6.78;4.07;;;5.90;99.90;;;;;;5078777;28;20426;-62
2022/01/18 08:30:16;;;;;;;9.32;4.03;;;5.90;99.90;;;;;;5064547;28;20040;-62
2022/01/18 08:33:02;;;;;;;12.80;3.92;;;5.90;99.90;;;;;;5092808;28;20027;-62
2022/01/18 08:35:28;;;;;;;6.53;4.32;;;5.80;99.90;;;;;;5090659;28;20049;-62
2022/01/18 08:41:39;;;;;;;10.55;3.58;;;5.90;99.90;;;;;;5084692;28;20059;-62
2022/01/18 08:44:04;;;;;;;6.85;3.50;;;5.80;99.90;;;;;;5092527;28;20067;-62
2022/01/18 08:49:52;;;;;;;10.57;3.70;;;5.80;99.90;;;;;;5081933;28;20040;-61
2022/01/18 08:52:18;;;;;;;13.82;3.70;;;5.80;99.90;;;;;;5092878;28;20150;-62
2022/01/18 08:55:26;;;;;;;9.50;4.00;;;5.70;99.90;;;;;;5092945;28;20111;-62
2022/01/18 08:58:21;;;;;;;24.65;5.10;;;5.80;99.90;;;;;;5092700;28;20020;-62
2022/01/18 09:01:21;;;;;;;10.27;4.55;;;5.80;99.90;;;;;;5092849;28;20095;-62
2022/01/18 09:03:48;;;;;;;13.95;5.05;;;5.80;99.90;;;;;;5074712;28;20484;-61
2022/01/18 09:06:16;;;;;;;9.52;4.80;;;5.80;99.90;;;;;;5092817;28;20028;-61
2022/01/18 09:08:41;;;;;;;20.23;5.38;;;5.80;99.90;;;;;;5092624;28;20027;-61
2022/01/18 09:11:10;;;;;;;18.02;5.03;;;5.80;99.90;;;;;;5092699;28;20032;-62
2022/01/18 09:13:36;;;;;;;12.52;5.15;;;5.80;99.90;;;;;;5092649;28;20024;-61
2022/01/18 09:16:05;;;;;;;13.00;5.10;;;5.80;99.90;;;;;;5074479;28;20031;-61
2022/01/18 09:18:32;;;;;;;15.33;5.17;;;5.80;99.90;;;;;;5092640;28;20024;-61
2022/01/18 09:21:21;;;;;;;11.23;5.18;;;5.70;99.90;;;;;;5074768;28;20024;-62
2022/01/18 09:23:58;;;;;;;16.80;4.80;;;5.70;99.90;;;;;;5091866;28;20032;-62
2022/01/18 09:26:23;;;;;;;17.23;5.50;;;5.60;99.90;;;;;;5092581;28;20058;-61
2022/01/18 09:29:08;;;;;;;12.02;4.55;;;5.50;99.90;;;;;;5092420;28;20028;-61
2022/01/18 09:31:35;;;;;;;16.35;4.53;;;5.50;99.90;;;;;;5092844;28;20028;-61
2022/01/18 09:34:38;;;;;;;;;;;;;;;;;;;;;
2022/01/18 09:37:04;;;;;;;12.32;5.00;;;5.70;99.90;;;;;;5089122;28;20472;-61
2022/01/18 09:39:30;;;;;;;10.93;5.13;;;5.70;99.90;;;;;;5092355;28;20104;-62
2022/01/18 09:42:04;;;;;;;11.65;4.80;;;5.80;99.90;;;;;;5092413;28;20052;-62
2022/01/18 09:44:30;;;;;;;16.52;4.30;;;5.80;99.90;;;;;;5092644;28;20070;-62
2022/01/18 09:46:56;;;;;;;9.10;3.80;;;5.80;99.90;;;;;;5095840;28;20032;-62
2022/01/18 09:49:24;;;;;;;10.15;3.88;;;5.80;99.90;;;;;;5096454;28;20132;-61
2022/01/18 09:51:50;;;;;;;9.68;4.55;;;5.80;99.90;;;;;;5096239;28;20490;-62
2022/01/18 09:54:16;;;;;;;11.65;4.13;;;5.70;99.90;;;;;;5096218;28;20081;-62
2022/01/18 09:56:41;;;;;;;10.60;4.07;;;5.70;99.90;;;;;;5096329;28;20437;-62
2022/01/18 09:59:08;;;;;;;16.00;5.28;;;5.70;99.90;;;;;;5096185;28;20074;-62
2022/01/18 10:01:33;;;;;;;12.75;4.68;;;5.60;99.90;;;;;;5096209;28;20055;-61
2022/01/18 10:04:30;;;;;;;12.65;5.00;;;5.60;99.90;;;;;;5096034;28;20051;-62
2022/01/18 10:07:37;;;;;;;14.15;4.22;;;5.60;99.90;;;;;;5096119;28;20054;-61
2022/01/18 10:10:15;;;;;;;8.90;4.15;;;5.70;99.90;;;;;;5095604;28;20028;-61
2022/01/18 10:13:56;;;;;;;14.00;4.75;;;5.70;99.90;;;;;;5095863;28;20027;-61
2022/01/18 10:16:12;;;;;;;14.40;4.30;;;5.70;99.90;;;;;;5077720;28;20559;-61
2022/01/18 10:18:47;;;;;;;8.98;4.40;;;5.80;99.90;;;;;;5095857;28;20383;-62
2022/01/18 10:21:28;;;;;;;15.02;5.13;;;5.80;99.90;;;;;;5091959;28;20544;-62
2022/01/18 10:24:21;;;;;;;10.98;4.30;;;5.90;99.90;;;;;;5083375;28;20012;-62
2022/01/18 10:26:52;;;;;;;8.80;3.47;;;5.90;99.90;;;;;;5089016;28;20083;-61
2022/01/18 10:29:22;;;;;;;12.40;3.67;;;5.90;99.90;;;;;;5079999;28;20016;-62
2022/01/18 10:34:41;;;;;;;10.40;5.47;;;6.00;99.90;;;;;;5095742;28;20044;-61
2022/01/18 10:37:34;;;;;;;11.70;4.25;;;5.90;99.90;;;;;;5080426;28;20024;-62
2022/01/18 10:40:05;;;;;;;14.10;4.45;;;5.90;99.90;;;;;;5091856;28;20024;-62
2022/01/18 10:42:39;;;;;;;8.88;4.60;;;5.90;99.90;;;;;;5095588;28;20020;-61
2022/01/18 10:45:08;;;;;;;10.88;4.75;;;6.00;99.90;;;;;;5095498;28;20024;-61
2022/01/18 10:47:35;;;;;;;9.00;4.00;;;6.00;99.90;;;;;;5094737;28;20024;-62
2022/01/18 10:50:15;;;;;;;9.13;3.78;;;6.10;99.90;;;;;;5095257;28;20024;-62
2022/01/18 10:52:42;;;;;;;14.13;4.15;;;6.10;99.90;;;;;;5095355;28;20028;-62
2022/01/18 10:55:18;;;;;;;10.27;4.65;;;6.10;99.90;;;;;;5094884;28;20070;-62
2022/01/18 10:58:13;;;;;;;10.85;4.40;;;6.20;99.90;;;;;;5094694;28;20022;-62
2022/01/18 11:00:39;;;;;;;10.13;4.40;;;6.30;99.90;;;;;;5095057;28;20031;-62
2022/01/18 11:03:10;;;;;;;11.55;4.57;;;6.20;99.90;;;;;;5094864;28;20024;-62
2022/01/18 11:08:39;;;;;;;7.90;4.32;;;6.30;99.90;;;;;;5094892;28;20032;-62
2022/01/18 11:11:23;;;;;;;9.25;4.15;;;6.30;99.90;;;;;;5094707;28;20077;-62
2022/01/18 11:13:48;;;;;;;9.20;4.88;;;6.30;99.90;;;;;;5094768;28;20031;-62
2022/01/18 11:16:23;;;;;;;11.02;4.63;;;6.40;99.90;;;;;;5094855;28;20024;-61
2022/01/18 11:18:49;;;;;;;9.15;4.05;;;6.50;99.90;;;;;;5076684;28;20369;-61
2022/01/18 11:21:18;;;;;;;9.35;4.18;;;6.50;99.90;;;;;;5094528;28;20020;-61
2022/01/18 11:23:45;;;;;;;14.80;5.10;;;6.50;99.90;;;;;;5094270;28;20518;-61
2022/01/18 11:26:10;;;;;;;13.13;5.35;;;6.60;99.90;;;;;;5093841;28;20396;-62
2022/01/18 11:28:37;;;;;;;14.68;4.68;;;6.60;99.90;;;;;;5094507;28;20069;-62
2022/01/18 11:31:03;;;;;;;12.68;5.07;;;6.70;99.90;;;;;;5094491;28;20027;-62
2022/01/18 11:33:34;;;;;;;13.70;5.22;;;6.70;99.90;;;;;;5094337;28;20028;-62
2022/01/18 11:36:09;;;;;;;12.27;4.85;;;6.80;99.90;;;;;;5094202;28;20066;-62
2022/01/18 11:38:45;;;;;;;9.77;4.40;;;6.80;99.90;;;;;;5076162;28;20395;-62
2022/01/18 11:41:28;;;;;;;12.00;5.22;;;6.90;99.90;;;;;;5093283;28;20483;-62
2022/01/18 11:43:55;;;;;;;11.02;5.38;;;6.90;99.90;;;;;;5093132;28;20545;-62
2022/01/18 11:46:37;;;;;;;10.40;4.57;;;6.90;99.90;;;;;;5093130;28;20464;-62
2022/01/18 11:49:09;;;;;;;12.10;5.90;;;6.90;99.90;;;;;;5090436;28;20028;-61
2022/01/18 11:51:43;;;;;;;13.27;5.28;;;6.90;99.90;;;;;;5087562;28;20028;-61
2022/01/18 11:54:33;;;;;;;15.50;6.00;;;6.90;99.90;;;;;;5092969;28;20471;-61
2022/01/18 11:57:01;;;;;;;13.32;5.40;;;7.00;99.90;;;;;;5070825;28;20421;-62
2022/01/18 11:59:52;;;;;;;13.98;5.45;;;7.00;99.90;;;;;;5091578;28;20077;-61
2022/01/18 12:02:37;;;;;;;;;;;;;;;;;;;;;
2022/01/18 12:05:16;;;;;;;13.32;6.47;;;7.10;99.90;;;;;;5089151;28;20020;-61
2022/01/18 12:07:44;;;;;;;14.23;6.53;;;7.20;99.90;;;;;;5092324;28;20024;-62
2022/01/18 12:10:29;;;;;;;14.70;6.80;;;7.20;99.90;;;;;;5090041;28;20034;-62
2022/01/18 12:12:56;;;;;;;15.20;6.97;;;7.30;99.90;;;;;;5074343;28;20020;-62
2022/01/18 12:15:22;;;;;;;16.60;7.13;;;7.30;99.90;;;;;;5092643;28;20051;-62
2022/01/18 12:17:55;;;;;;;15.32;6.60;;;7.40;99.90;;;;;;5093185;28;20380;-62
2022/01/18 12:20:37;;;;;;;15.23;6.28;;;7.40;99.90;;;;;;5093636;28;20387;-62
2022/01/18 12:23:08;;;;;;;18.20;7.32;;;7.40;99.90;;;;;;5093504;28;20376;-62
2022/01/18 12:25:36;;;;;;;21.25;8.40;;;7.40;99.90;;;;;;5092645;28;20123;-62
2022/01/18 12:32:06;;;;;;;16.52;6.93;;;7.60;99.90;;;;;;5093620;28;20114;-62
2022/01/18 12:34:33;;;;;;;18.58;8.75;;;7.70;99.90;;;;;;5093239;28;20028;-62
2022/01/18 12:37:07;;;;;;;18.95;9.43;;;7.80;99.90;;;;;;5093150;28;20046;-62
2022/01/18 12:39:59;;;;;;;25.33;9.13;;;7.90;99.90;;;;;;5093272;28;20414;-62
2022/01/18 12:44:58;;;;;;;17.92;8.48;;;8.20;99.90;;;;;;5093009;28;20093;-62
2022/01/18 12:47:24;;;;;;;23.60;9.02;;;8.30;99.90;;;;;;5093041;28;20024;-62
2022/01/18 12:49:51;;;;;;;19.30;8.60;;;8.50;99.90;;;;;;5093027;28;20365;-62
2022/01/18 12:52:17;;;;;;;18.42;8.10;;;8.60;99.90;;;;;;5092694;28;20020;-62
2022/01/18 12:54:43;;;;;;;18.33;8.57;;;8.70;99.90;;;;;;5092966;28;20024;-63
2022/01/18 12:57:23;;;;;;;20.17;8.77;;;8.80;99.90;;;;;;5092614;28;20387;-62
2022/01/18 13:00:05;;;;;;;15.30;7.78;;;9.00;99.90;;;;;;5074695;28;20479;-62
2022/01/18 13:02:38;;;;;;;21.08;10.27;;;9.20;99.90;;;;;;5092965;28;20081;-62
2022/01/18 13:05:07;;;;;;;17.92;7.90;;;9.50;99.90;;;;;;5092668;28;20062;-62
2022/01/18 13:07:58;;;;;;;15.10;7.72;;;9.80;99.90;;;;;;5093141;28;20055;-63
2022/01/18 13:10:45;;;;;;;22.02;8.65;;;10.20;99.90;;;;;;5092895;28;20061;-62
2022/01/18 13:13:14;;;;;;;12.68;6.88;;;11.00;99.90;;;;;;5092551;28;20100;-62
2022/01/18 13:26:45;;;;;;;16.17;7.15;;;16.20;99.90;;;;;;5096811;28;20105;-60
2022/01/18 13:29:13;;;;;;;11.38;5.30;;;17.00;98.10;;;;;;5096738;28;20028;-60
2022/01/18 13:31:41;;;;;;;11.82;5.22;;;18.00;97.90;;;;;;5096792;28;20020;-60
2022/01/18 13:34:11;;;;;;;12.02;5.55;;;19.10;96.70;;;;;;5096708;28;20494;-60
2022/01/18 13:37:02;;;;;;;9.93;4.75;;;20.10;94.80;;;;;;5096626;28;20024;-60
2022/01/18 13:39:31;;;;;;;9.93;4.53;;;21.00;92.50;;;;;;5096611;28;20032;-60
2022/01/18 13:41:59;;;;;;;9.65;3.90;;;21.30;90.80;;;;;;5096265;28;20016;-60
2022/01/18 13:44:26;;;;;;;8.68;3.92;;;21.00;89.50;;;;;;5096122;28;20487;-60
2022/01/18 13:46:52;;;;;;;9.65;3.80;;;20.50;88.90;;;;;;5095530;28;20032;-60
2022/01/18 13:49:25;;;;;;;12.27;4.10;;;20.20;88.10;;;;;;5095257;28;20118;-60
2022/01/18 13:52:20;;;;;;;10.98;3.42;;;19.70;87.60;;;;;;5092560;28;20107;-60
2022/01/18 13:54:51;;;;;;;12.00;4.20;;;19.30;86.90;;;;;;5075007;28;20036;-59
2022/01/18 13:57:22;;;;;;;12.15;3.75;;;18.90;87.10;;;;;;5092559;28;20081;-60
2022/01/18 13:59:49;;;;;;;9.77;3.70;;;18.60;86.60;;;;;;5092090;28;20024;-60
2022/01/18 14:02:18;;;;;;;9.18;3.67;;;18.40;86.00;;;;;;5074048;28;20510;-60
2022/01/18 14:04:46;;;;;;;10.80;3.88;;;18.10;85.50;;;;;;5095107;28;20028;-60
2022/01/18 14:07:13;;;;;;;11.10;3.25;;;18.20;85.60;;;;;;5095376;28;20039;-60
2022/01/18 14:09:39;;;;;;;10.70;3.20;;;18.20;84.10;;;;;;5096034;28;20034;-60
2022/01/18 14:12:12;;;;;;;9.73;3.22;;;17.80;83.30;;;;;;5096011;28;20047;-60
2022/01/18 14:14:42;;;;;;;10.07;3.38;;;17.40;83.90;;;;;;5095855;28;20024;-59
2022/01/18 14:17:16;;;;;;;12.15;3.40;;;17.00;83.90;;;;;;5095626;28;20493;-60
2022/01/18 14:19:44;;;;;;;12.18;3.45;;;16.60;83.80;;;;;;5096035;28;20447;-59
2022/01/18 14:22:29;;;;;;;13.00;3.85;;;16.20;84.20;;;;;;5095853;28;20379;-60
2022/01/18 14:24:58;;;;;;;10.82;3.70;;;15.80;84.40;;;;;;5095449;28;20527;-59
2022/01/18 14:27:31;;;;;;;11.10;3.22;;;15.40;85.10;;;;;;5095702;28;20392;-59
2022/01/18 14:29:59;;;;;;;10.30;3.63;;;15.10;85.60;;;;;;5095720;28;20033;-59
2022/01/18 14:32:26;;;;;;;12.95;2.90;;;14.80;85.80;;;;;;5094830;28;20060;-59
2022/01/18 14:34:57;;;;;;;10.98;3.17;;;14.40;86.00;;;;;;5096093;28;20020;-59
2022/01/18 14:37:42;;;;;;;13.73;3.38;;;14.20;86.40;;;;;;5061210;28;20028;-59
2022/01/18 14:40:28;;;;;;;10.45;2.85;;;14.10;86.40;;;;;;5094486;28;20514;-59
2022/01/18 14:43:14;;;;;;;10.68;3.00;;;13.90;86.60;;;;;;5095025;28;20057;-59
2022/01/18 14:46:21;;;;;;;11.40;3.53;;;13.70;86.90;;;;;;5094074;28;20487;-59
2022/01/18 14:48:34;;;;;;;15.45;4.00;;;13.50;87.10;;;;;;5094954;28;20044;-59
2022/01/18 14:51:00;;;;;;;16.65;3.72;;;13.30;87.40;;;;;;5095178;28;20035;-59
2022/01/18 14:53:26;;;;;;;10.90;3.00;;;13.20;87.60;;;;;;5095142;28;20032;-60
2022/01/18 14:55:53;;;;;;;15.55;3.88;;;13.10;87.90;;;;;;5095473;28;20422;-59
2022/01/18 14:58:19;;;;;;;14.85;3.95;;;13.00;88.00;;;;;;5090872;28;20476;-59
2022/01/18 15:00:45;;;;;;;11.23;3.90;;;12.90;88.10;;;;;;5094085;28;20070;-59